createdAt,value
2018-11-27T00:01:28.469Z,11.50
2018-11-27T00:03:57.665Z,11.47
2018-11-27T00:06:50.167Z,11.10
2018-11-27T00:09:20.699Z,9.97
2018-11-27T00:11:49.901Z,11.63
2018-11-27T00:14:19.122Z,13.13
2018-11-27T00:16:48.413Z,11.67
2018-11-27T00:19:17.637Z,12.03
2018-11-27T00:21:46.815Z,12.00
2018-11-27T00:24:16.431Z,12.60
2018-11-27T00:26:45.638Z,11.13
2018-11-27T00:29:14.911Z,12.13
2018-11-27T00:31:44.115Z,11.47
2018-11-27T00:34:13.395Z,11.67
2018-11-27T00:36:42.530Z,11.07
2018-11-27T00:39:13.148Z,11.03
2018-11-27T00:41:43.119Z,11.53
2018-11-27T00:44:12.245Z,9.63
2018-11-27T00:46:41.485Z,9.50
2018-11-27T00:49:10.804Z,9.53
2018-11-27T00:51:39.995Z,9.30
2018-11-27T00:54:09.669Z,9.37
2018-11-27T00:56:39.459Z,10.77
2018-11-27T00:59:08.632Z,10.10
2018-11-27T01:01:37.801Z,10.30
2018-11-27T01:04:07.489Z,9.20
2018-11-27T01:06:36.751Z,9.80
2018-11-27T01:09:08.497Z,10.40
2018-11-27T01:11:38.082Z,9.43
2018-11-27T01:14:07.329Z,9.17
2018-11-27T01:16:36.614Z,8.30
2018-11-27T01:19:05.879Z,10.00
2018-11-27T01:21:35.149Z,9.07
2018-11-27T01:24:04.317Z,9.77
2018-11-27T01:26:33.581Z,10.20
2018-11-27T01:29:03.070Z,9.93
2018-11-27T01:31:32.390Z,9.77
2018-11-27T01:34:01.680Z,10.50
2018-11-27T01:36:31.087Z,10.77
2018-11-27T01:39:00.312Z,9.23
2018-11-27T01:41:30.088Z,11.27
2018-11-27T01:43:59.779Z,10.73
2018-11-27T01:46:29.608Z,10.63
2018-11-27T01:48:59.579Z,11.80
2018-11-27T01:51:30.189Z,10.67
2018-11-27T01:53:59.808Z,10.00
2018-11-27T01:56:29.648Z,11.13
2018-11-27T01:58:59.599Z,10.37
2018-11-27T02:01:29.639Z,11.37
2018-11-27T02:03:59.679Z,10.60
2018-11-27T02:06:28.893Z,11.90
2018-11-27T02:08:58.027Z,11.57
2018-11-27T02:11:27.427Z,11.30
2018-11-27T02:13:56.721Z,12.30
2018-11-27T02:16:25.887Z,12.00
2018-11-27T02:18:55.187Z,11.00
2018-11-27T02:21:24.417Z,13.03
2018-11-27T02:23:53.635Z,11.37
2018-11-27T02:29:03.004Z,11.43
2018-11-27T02:31:32.432Z,11.83
2018-11-27T02:34:02.019Z,12.80
2018-11-27T02:36:31.384Z,12.10
2018-11-27T02:39:00.666Z,12.10
2018-11-27T02:41:34.292Z,12.83
2018-11-27T02:44:03.572Z,12.80
2018-11-27T02:46:32.827Z,11.53
2018-11-27T02:49:02.133Z,12.17
2018-11-27T02:51:31.423Z,12.90
2018-11-27T02:54:00.737Z,12.60
2018-11-27T02:56:29.956Z,12.53
2018-11-27T02:58:59.183Z,12.30
2018-11-27T03:01:28.584Z,12.23
2018-11-27T03:03:57.969Z,11.20
2018-11-27T03:06:27.228Z,12.57
2018-11-27T03:08:56.538Z,12.37
2018-11-27T03:11:26.063Z,12.10
2018-11-27T03:13:55.349Z,12.93
2018-11-27T03:16:24.572Z,12.77
2018-11-27T03:18:54.044Z,11.97
2018-11-27T03:21:24.177Z,12.77
2018-11-27T03:23:53.467Z,12.07
2018-11-27T03:26:22.673Z,12.43
2018-11-27T03:28:51.945Z,11.17
2018-11-27T03:31:21.222Z,12.67
2018-11-27T03:33:50.406Z,12.77
2018-11-27T03:36:19.757Z,12.00
2018-11-27T03:38:49.120Z,11.57
2018-11-27T03:41:18.355Z,10.70
2018-11-27T03:43:47.631Z,10.60
2018-11-27T03:46:16.830Z,11.87
2018-11-27T03:48:46.096Z,11.47
2018-11-27T03:51:15.338Z,12.33
2018-11-27T03:53:44.486Z,11.60
2018-11-27T03:56:13.652Z,11.97
2018-11-27T03:58:42.824Z,11.60
2018-11-27T04:01:12.848Z,11.43
2018-11-27T04:03:41.998Z,11.43
2018-11-27T04:06:11.199Z,11.73
2018-11-27T04:08:40.424Z,11.83
2018-11-27T04:11:09.687Z,11.97
2018-11-27T04:13:38.920Z,11.20
2018-11-27T04:16:08.130Z,11.70
2018-11-27T04:18:37.317Z,9.80
2018-11-27T04:21:06.788Z,12.00
2018-11-27T04:23:36.015Z,11.13
2018-11-27T04:26:05.408Z,10.97
2018-11-27T04:28:34.727Z,11.93
2018-11-27T04:31:03.998Z,12.67
2018-11-27T04:33:33.254Z,11.80
2018-11-27T04:36:02.593Z,11.93
2018-11-27T04:38:31.831Z,12.40
2018-11-27T04:41:01.038Z,12.30
2018-11-27T04:43:30.453Z,13.67
2018-11-27T04:46:25.438Z,13.70
2018-11-27T04:48:54.623Z,13.37
2018-11-27T04:51:23.773Z,14.60
2018-11-27T04:53:53.062Z,13.03
2018-11-27T04:56:22.322Z,13.20
2018-11-27T04:58:51.472Z,13.40
2018-11-27T05:01:20.718Z,14.03
2018-11-27T05:03:49.866Z,14.33
2018-11-27T05:06:19.312Z,14.07
2018-11-27T05:08:49.104Z,13.93
2018-11-27T05:11:18.334Z,13.50
2018-11-27T05:13:47.492Z,14.43
2018-11-27T05:16:16.666Z,13.93
2018-11-27T05:18:46.838Z,14.33
2018-11-27T05:21:16.086Z,13.67
2018-11-27T05:23:45.324Z,14.10
2018-11-27T05:26:14.647Z,15.10
2018-11-27T05:28:43.769Z,14.77
2018-11-27T05:31:12.943Z,15.13
2018-11-27T05:33:43.031Z,14.47
2018-11-27T05:36:12.919Z,15.67
2018-11-27T05:38:42.539Z,14.90
2018-11-27T05:41:12.461Z,15.97
2018-11-27T05:43:46.172Z,16.53
2018-11-27T05:46:11.652Z,14.87
2018-11-27T05:48:41.305Z,15.80
2018-11-27T05:51:10.532Z,16.77
2018-11-27T05:53:39.654Z,15.60
2018-11-27T05:56:08.862Z,17.13
2018-11-27T05:58:38.137Z,17.37
2018-11-27T06:01:07.473Z,17.80
2018-11-27T06:03:36.667Z,16.17
2018-11-27T06:06:05.997Z,17.53
2018-11-27T06:08:35.391Z,17.97
2018-11-27T06:11:04.729Z,16.50
2018-11-27T06:13:33.881Z,17.30
2018-11-27T06:16:03.646Z,19.23
2018-11-27T06:18:53.022Z,18.33
2018-11-27T06:21:23.311Z,19.13
2018-11-27T06:23:53.314Z,18.47
2018-11-27T06:26:22.601Z,19.27
2018-11-27T06:28:51.853Z,18.10
2018-11-27T06:31:21.135Z,18.50
2018-11-27T06:33:50.419Z,18.50
2018-11-27T06:36:19.546Z,18.23
2018-11-27T06:38:48.796Z,19.03
2018-11-27T06:41:17.956Z,18.57
2018-11-27T06:43:47.192Z,17.70
2018-11-27T06:46:16.333Z,17.33
2018-11-27T06:48:45.546Z,16.57
2018-11-27T06:51:14.751Z,18.87
2018-11-27T06:53:44.024Z,16.53
2018-11-27T06:56:13.241Z,18.03
2018-11-27T06:58:42.513Z,17.87
2018-11-27T07:01:11.710Z,17.23
2018-11-27T07:03:40.881Z,18.23
2018-11-27T07:06:11.022Z,17.77
2018-11-27T07:08:40.749Z,16.57
2018-11-27T07:11:09.959Z,16.60
2018-11-27T07:13:39.122Z,17.40
2018-11-27T07:16:08.341Z,17.00
2018-11-27T07:18:37.603Z,17.17
2018-11-27T07:21:07.586Z,16.17
2018-11-27T07:23:36.716Z,17.03
2018-11-27T07:26:06.185Z,17.00
2018-11-27T07:28:35.381Z,17.07
2018-11-27T07:31:04.579Z,16.03
2018-11-27T07:33:33.813Z,15.17
2018-11-27T07:36:03.000Z,16.53
2018-11-27T07:38:32.257Z,15.53
2018-11-27T07:41:01.514Z,14.90
2018-11-27T07:43:30.737Z,15.53
2018-11-27T07:45:59.953Z,15.27
2018-11-27T07:48:29.250Z,13.20
2018-11-27T07:53:46.812Z,13.60
2018-11-27T07:56:15.961Z,14.17
2018-11-27T07:58:45.194Z,12.77
2018-11-27T08:01:14.390Z,13.63
2018-11-27T08:03:43.558Z,13.70
2018-11-27T08:06:12.765Z,13.33
2018-11-27T08:08:41.991Z,13.43
2018-11-27T08:11:11.170Z,12.80
2018-11-27T08:13:40.492Z,13.67
2018-11-27T08:16:09.793Z,13.03
2018-11-27T08:18:38.989Z,13.37
2018-11-27T08:21:08.261Z,13.03
2018-11-27T08:23:37.494Z,13.13
2018-11-27T08:26:07.179Z,12.97
2018-11-27T08:28:36.391Z,12.97
2018-11-27T08:31:05.613Z,12.20
2018-11-27T08:33:34.930Z,12.83
2018-11-27T08:36:04.307Z,13.37
2018-11-27T08:38:33.478Z,12.00
2018-11-27T08:41:02.695Z,13.17
2018-11-27T08:43:31.967Z,12.90
2018-11-27T08:46:01.237Z,14.33
2018-11-27T08:48:30.467Z,12.83
2018-11-27T08:50:59.675Z,15.47
2018-11-27T08:53:29.016Z,13.83
2018-11-27T08:55:58.223Z,13.87
2018-11-27T08:58:27.462Z,13.27
2018-11-27T09:00:56.690Z,13.00
2018-11-27T09:03:25.856Z,15.27
2018-11-27T09:05:55.042Z,13.90
2018-11-27T09:08:24.196Z,15.17
2018-11-27T09:10:53.466Z,14.60
2018-11-27T09:13:22.636Z,14.90
2018-11-27T09:15:51.900Z,14.43
2018-11-27T09:18:25.970Z,13.77
2018-11-27T09:20:55.206Z,14.97
2018-11-27T09:23:24.796Z,18.27
2018-11-27T09:25:54.167Z,18.47
2018-11-27T09:28:23.309Z,16.33
2018-11-27T09:30:52.521Z,14.50
2018-11-27T09:33:21.807Z,13.60
2018-11-27T09:35:51.156Z,13.10
2018-11-27T09:38:20.246Z,13.57
2018-11-27T09:40:49.501Z,13.80
2018-11-27T09:43:18.625Z,13.60
2018-11-27T09:45:48.718Z,13.57
2018-11-27T09:48:18.093Z,13.53
2018-11-27T09:50:47.271Z,14.40
2018-11-27T09:53:16.761Z,15.20
2018-11-27T09:55:46.058Z,14.00
2018-11-27T09:58:15.377Z,14.37
2018-11-27T10:00:44.629Z,13.93
2018-11-27T10:03:15.162Z,14.73
2018-11-27T10:05:44.453Z,14.87
2018-11-27T10:08:13.571Z,15.03
2018-11-27T10:10:48.091Z,14.63
2018-11-27T10:13:18.520Z,14.17
2018-11-27T10:15:48.650Z,15.37
2018-11-27T10:18:17.943Z,14.07
2018-11-27T10:20:47.220Z,13.87
2018-11-27T10:23:16.627Z,15.00
2018-11-27T10:25:45.857Z,12.83
2018-11-27T10:28:14.977Z,14.53
2018-11-27T10:30:44.270Z,13.90
2018-11-27T10:33:13.735Z,15.30
2018-11-27T10:35:49.243Z,14.17
2018-11-27T10:38:18.491Z,15.47
2018-11-27T10:40:47.938Z,14.73
2018-11-27T10:43:19.744Z,16.60
2018-11-27T10:45:46.473Z,15.87
2018-11-27T10:48:15.690Z,15.17
2018-11-27T10:50:44.842Z,14.67
2018-11-27T10:53:14.402Z,14.23
2018-11-27T10:55:43.670Z,15.33
2018-11-27T10:58:15.218Z,14.40
2018-11-27T11:00:50.150Z,15.30
2018-11-27T11:03:30.428Z,15.23
2018-11-27T11:05:59.770Z,14.37
2018-11-27T11:08:29.151Z,15.07
2018-11-27T11:10:58.387Z,14.87
2018-11-27T11:13:27.613Z,15.50
2018-11-27T11:15:56.898Z,15.07
2018-11-27T11:18:26.124Z,16.33
2018-11-27T11:20:55.489Z,14.60
2018-11-27T11:23:24.703Z,17.37
2018-11-27T11:25:54.213Z,15.77
2018-11-27T11:28:27.213Z,15.43
2018-11-27T11:30:56.486Z,15.17
2018-11-27T11:33:25.701Z,16.87
2018-11-27T11:35:55.036Z,15.50
2018-11-27T11:38:24.180Z,16.07
2018-11-27T11:40:53.360Z,16.00
2018-11-27T11:43:22.736Z,15.83
2018-11-27T11:45:52.629Z,14.50
2018-11-27T11:48:21.760Z,15.30
2018-11-27T11:50:51.070Z,17.43
2018-11-27T11:53:20.593Z,15.37
2018-11-27T11:55:49.917Z,16.23
2018-11-27T11:58:19.120Z,17.30
2018-11-27T12:00:51.528Z,18.03
2018-11-27T12:03:20.777Z,17.27
2018-11-27T12:05:50.006Z,17.93
2018-11-27T12:08:19.164Z,17.50
2018-11-27T12:10:48.406Z,18.30
2018-11-27T12:13:17.592Z,16.60
2018-11-27T12:15:47.065Z,18.00
2018-11-27T12:18:16.315Z,18.43
2018-11-27T12:20:45.489Z,18.00
2018-11-27T12:23:14.747Z,17.90
2018-11-27T12:25:44.000Z,18.27
2018-11-27T12:28:14.914Z,17.63
2018-11-27T12:30:42.584Z,19.40
2018-11-27T12:33:12.360Z,17.03
2018-11-27T12:35:41.565Z,17.17
2018-11-27T12:38:10.801Z,18.83
2018-11-27T12:40:40.044Z,17.33
2018-11-27T12:43:09.258Z,17.97
2018-11-27T12:45:38.560Z,18.97
2018-11-27T12:48:07.752Z,18.30
2018-11-27T12:50:41.594Z,19.00
2018-11-27T12:53:16.678Z,18.70
2018-11-27T12:55:42.563Z,18.20
2018-11-27T12:58:11.855Z,17.90
2018-11-27T13:00:41.071Z,19.07
2018-11-27T13:03:10.288Z,21.87
2018-11-27T13:05:41.835Z,18.07
2018-11-27T13:08:13.570Z,19.80
2018-11-27T13:10:42.989Z,18.77
2018-11-27T13:13:12.206Z,18.03
2018-11-27T13:15:42.262Z,19.13
2018-11-27T13:18:13.308Z,18.53
2018-11-27T13:20:44.170Z,18.67
2018-11-27T13:23:14.011Z,19.43
2018-11-27T13:25:43.930Z,19.77
2018-11-27T13:28:14.280Z,18.43
2018-11-27T13:30:49.717Z,19.47
2018-11-27T13:33:24.653Z,20.47
2018-11-27T13:35:53.982Z,18.97
2018-11-27T13:38:23.170Z,18.70
2018-11-27T13:40:52.418Z,20.00
2018-11-27T13:43:22.997Z,19.43
2018-11-27T13:45:52.420Z,21.37
2018-11-27T13:48:21.578Z,19.80
2018-11-27T13:50:50.870Z,19.80
2018-11-27T13:53:20.113Z,21.17
2018-11-27T13:55:49.353Z,19.57
2018-11-27T13:58:19.129Z,21.30
2018-11-27T14:00:48.333Z,20.77
2018-11-27T14:03:17.689Z,19.83
2018-11-27T14:05:48.800Z,21.17
2018-11-27T14:08:18.490Z,20.17
2018-11-27T14:10:47.621Z,21.90
2018-11-27T14:13:16.833Z,21.90
2018-11-27T14:15:46.027Z,22.07
2018-11-27T14:18:15.347Z,21.47
2018-11-27T14:20:45.963Z,22.87
2018-11-27T14:23:13.961Z,21.47
2018-11-27T14:25:43.205Z,21.90
2018-11-27T14:28:12.585Z,21.67
2018-11-27T14:30:41.805Z,21.33
2018-11-27T14:33:11.003Z,22.37
2018-11-27T14:35:40.213Z,21.83
2018-11-27T14:38:09.437Z,22.40
2018-11-27T14:40:38.630Z,22.50
2018-11-27T14:43:07.886Z,22.13
2018-11-27T14:45:37.101Z,22.70
2018-11-27T14:48:07.103Z,24.03
2018-11-27T14:50:36.375Z,21.77
2018-11-27T14:53:07.279Z,22.07
2018-11-27T14:55:37.209Z,23.17
2018-11-27T14:58:07.083Z,24.83
2018-11-27T15:00:36.279Z,21.77
2018-11-27T15:03:05.959Z,21.93
2018-11-27T15:05:36.347Z,22.73
2018-11-27T15:08:08.475Z,22.93
2018-11-27T15:10:37.871Z,23.67
2018-11-27T15:13:07.759Z,22.60
2018-11-27T15:15:37.098Z,23.10
2018-11-27T15:18:07.386Z,25.60
2018-11-27T15:20:36.635Z,24.30
2018-11-27T15:23:06.075Z,24.07
2018-11-27T15:25:35.394Z,25.23
2018-11-27T15:28:05.420Z,25.10
2018-11-27T15:30:37.471Z,23.00
2018-11-27T15:33:08.251Z,23.17
2018-11-27T15:35:38.185Z,25.83
2018-11-27T15:38:08.039Z,22.70
2018-11-27T15:40:38.760Z,24.57
2018-11-27T15:43:09.122Z,23.10
2018-11-27T15:45:40.350Z,22.50
2018-11-27T15:48:11.720Z,23.60
2018-11-27T15:50:40.950Z,22.83
2018-11-27T15:53:10.208Z,21.43
2018-11-27T15:55:40.417Z,33.57
2018-11-27T15:58:12.546Z,22.50
2018-11-27T16:00:42.500Z,23.43
2018-11-27T16:03:11.673Z,22.80
2018-11-27T16:05:43.755Z,23.30
2018-11-27T16:08:13.159Z,21.80
2018-11-27T16:10:42.454Z,23.27
2018-11-27T16:13:11.701Z,24.53
2018-11-27T16:15:40.955Z,25.77
2018-11-27T16:18:10.156Z,24.30
2018-11-27T16:20:39.359Z,23.60
2018-11-27T16:23:08.802Z,23.83
2018-11-27T16:25:38.136Z,23.70
2018-11-27T16:28:07.971Z,23.07
2018-11-27T16:30:37.236Z,24.37
2018-11-27T16:33:07.133Z,24.07
2018-11-27T16:35:36.528Z,23.10
2018-11-27T16:38:06.036Z,24.47
2018-11-27T16:40:37.629Z,24.80
2018-11-27T16:43:07.158Z,26.07
2018-11-27T16:45:36.396Z,26.30
2018-11-27T16:48:05.847Z,24.83
2018-11-27T16:50:35.030Z,23.80
2018-11-27T16:53:04.330Z,25.27
2018-11-27T16:55:33.648Z,24.70
2018-11-27T16:58:02.948Z,25.93
2018-11-27T17:00:33.469Z,25.30
2018-11-27T17:03:03.723Z,23.63
2018-11-27T17:05:41.182Z,24.20
2018-11-27T17:08:10.605Z,25.27
2018-11-27T17:10:41.791Z,24.20
2018-11-27T17:13:32.198Z,22.77
2018-11-27T17:16:02.131Z,25.60
2018-11-27T17:18:31.351Z,26.47
2018-11-27T17:21:00.614Z,25.80
2018-11-27T17:23:29.798Z,23.73
2018-11-27T17:26:03.974Z,26.00
2018-11-27T17:28:30.117Z,25.00
2018-11-27T17:31:04.965Z,26.13
2018-11-27T17:33:39.012Z,24.90
2018-11-27T17:36:09.556Z,25.20
2018-11-27T17:38:38.927Z,26.10
2018-11-27T17:41:09.069Z,25.83
2018-11-27T17:43:38.641Z,25.37
2018-11-27T17:46:08.338Z,24.80
2018-11-27T17:48:37.558Z,27.40
2018-11-27T17:51:08.789Z,24.67
2018-11-27T17:53:38.096Z,25.60
2018-11-27T17:56:07.371Z,26.10
2018-11-27T17:58:36.579Z,26.93
2018-11-27T18:01:06.891Z,25.37
2018-11-27T18:03:36.145Z,23.90
2018-11-27T18:06:05.470Z,23.87
2018-11-27T18:08:34.743Z,25.00
2018-11-27T18:11:04.062Z,24.93
2018-11-27T18:13:33.312Z,24.53
2018-11-27T18:16:02.485Z,25.07
2018-11-27T18:18:31.918Z,24.30
2018-11-27T18:21:01.271Z,24.23
2018-11-27T18:23:30.412Z,25.03
2018-11-27T18:25:59.716Z,23.73
2018-11-27T18:28:28.990Z,24.60
2018-11-27T18:30:58.492Z,24.47
2018-11-27T18:33:27.706Z,25.47
2018-11-27T18:35:56.926Z,24.30
2018-11-27T18:38:26.294Z,24.63
2018-11-27T18:40:55.538Z,25.73
2018-11-27T18:43:24.816Z,25.80
2018-11-27T18:45:54.192Z,25.20
2018-11-27T18:48:27.493Z,27.73
2018-11-27T18:50:57.158Z,26.03
2018-11-27T18:53:26.464Z,24.63
2018-11-27T18:55:56.101Z,25.27
2018-11-27T18:58:25.344Z,24.80
2018-11-27T19:00:54.950Z,24.53
2018-11-27T19:03:24.261Z,25.43
2018-11-27T19:05:53.664Z,24.07
2018-11-27T19:08:23.126Z,23.90
2018-11-27T19:10:52.414Z,23.87
2018-11-27T19:13:21.755Z,23.20
2018-11-27T19:15:51.470Z,25.60
2018-11-27T19:18:24.366Z,23.90
2018-11-27T19:20:53.961Z,25.53
2018-11-27T19:23:25.031Z,24.97
2018-11-27T19:25:55.146Z,24.97
2018-11-27T19:28:24.700Z,25.03
2018-11-27T19:30:54.334Z,24.40
2018-11-27T19:33:23.878Z,23.83
2018-11-27T19:35:54.040Z,24.40
2018-11-27T19:38:23.660Z,25.17
2018-11-27T19:40:53.439Z,26.50
2018-11-27T19:43:23.020Z,25.80
2018-11-27T19:45:54.154Z,24.57
2018-11-27T19:48:24.785Z,24.60
2018-11-27T19:50:54.490Z,25.03
2018-11-27T19:53:24.138Z,26.43
2018-11-27T19:55:53.566Z,25.23
2018-11-27T19:58:23.191Z,25.30
2018-11-27T20:00:53.182Z,24.13
2018-11-27T20:03:22.784Z,25.93
2018-11-27T20:05:52.664Z,25.67
2018-11-27T20:08:22.356Z,25.43
2018-11-27T20:10:52.220Z,23.53
2018-11-27T20:13:21.977Z,24.87
2018-11-27T20:15:51.769Z,26.10
2018-11-27T20:18:21.509Z,24.10
2018-11-27T20:20:51.176Z,23.30
2018-11-27T20:23:20.873Z,25.30
2018-11-27T20:25:50.726Z,24.63
2018-11-27T20:28:20.507Z,24.93
2018-11-27T20:30:50.099Z,22.80
2018-11-27T20:33:19.808Z,26.13
2018-11-27T20:35:49.376Z,27.47
2018-11-27T20:38:19.107Z,22.53
2018-11-27T20:40:48.704Z,24.83
2018-11-27T20:43:18.444Z,25.23
2018-11-27T20:45:48.102Z,25.13
2018-11-27T20:48:20.024Z,25.40
2018-11-27T20:50:50.906Z,24.03
2018-11-27T20:53:20.322Z,24.93
2018-11-27T20:55:50.176Z,24.80
2018-11-27T20:58:19.806Z,22.30
2018-11-27T21:00:51.610Z,21.97
2018-11-27T21:03:22.905Z,23.77
2018-11-27T21:05:52.387Z,26.30
2018-11-27T21:08:21.782Z,21.10
2018-11-27T21:10:51.890Z,22.77
2018-11-27T21:13:22.100Z,23.90
2018-11-27T21:15:53.189Z,25.80
2018-11-27T21:18:23.004Z,26.43
2018-11-27T21:20:53.129Z,25.30
2018-11-27T21:23:23.339Z,24.83
2018-11-27T21:25:56.427Z,26.20
2018-11-27T21:28:22.118Z,26.30
2018-11-27T21:30:52.358Z,26.27
2018-11-27T21:33:22.054Z,25.73
2018-11-27T21:35:51.328Z,25.90
2018-11-27T21:38:21.150Z,26.47
2018-11-27T21:40:50.437Z,25.33
2018-11-27T21:43:19.690Z,24.90
2018-11-27T21:45:49.016Z,24.57
2018-11-27T21:48:18.248Z,25.47
2018-11-27T21:50:47.501Z,24.90
2018-11-27T21:53:16.715Z,22.30
2018-11-27T21:55:46.660Z,24.20
2018-11-27T21:58:16.359Z,24.40
2018-11-27T22:00:45.552Z,24.07
2018-11-27T22:03:14.812Z,24.07
2018-11-27T22:05:44.057Z,22.30
2018-11-27T22:08:13.259Z,24.17
2018-11-27T22:10:42.541Z,22.30
2018-11-27T22:13:13.367Z,21.93
2018-11-27T22:15:43.914Z,21.37
2018-11-27T22:18:13.935Z,22.50
2018-11-27T22:20:43.179Z,22.80
2018-11-27T22:23:12.433Z,20.87
2018-11-27T22:25:41.623Z,23.53
2018-11-27T22:28:10.879Z,20.50
2018-11-27T22:30:40.199Z,21.70
2018-11-27T22:33:09.862Z,22.07
2018-11-27T22:35:39.341Z,24.13
2018-11-27T22:38:08.951Z,22.83
2018-11-27T22:41:00.874Z,22.17
2018-11-27T22:43:30.752Z,21.30
2018-11-27T22:46:00.639Z,21.90
2018-11-27T22:48:29.949Z,21.50
2018-11-27T22:50:59.201Z,21.83
2018-11-27T22:53:28.469Z,22.83
2018-11-27T22:55:57.839Z,21.40
2018-11-27T22:58:27.102Z,21.57
2018-11-27T23:00:56.361Z,21.60
2018-11-27T23:03:25.653Z,22.97
2018-11-27T23:05:55.004Z,21.53
2018-11-27T23:08:24.345Z,20.70
2018-11-27T23:10:53.677Z,21.83
2018-11-27T23:13:22.879Z,21.43
2018-11-27T23:15:52.105Z,22.23
2018-11-27T23:18:21.342Z,21.87
2018-11-27T23:20:50.762Z,19.27
2018-11-27T23:23:20.000Z,20.50
2018-11-27T23:25:49.272Z,20.20
2018-11-27T23:28:19.650Z,21.03
2018-11-27T23:30:49.741Z,20.20
2018-11-27T23:33:19.700Z,19.13
2018-11-27T23:35:49.440Z,19.60
2018-11-27T23:38:18.697Z,19.57
2018-11-27T23:40:47.916Z,20.63
2018-11-27T23:43:17.346Z,20.43
2018-11-27T23:45:46.633Z,18.87
2018-11-27T23:48:15.883Z,20.20
2018-11-27T23:50:45.163Z,20.40
2018-11-27T23:53:14.383Z,19.03
2018-11-27T23:55:43.604Z,19.03
2018-11-27T23:58:12.837Z,19.50
